Time;durP1;ratioP1;P1;durP2;ratioP2;P2;SDS_P1;SDS_P2;PMS_P1;PMS_P2;Temp;Humidity;BMP_temperature;BMP_pressure;BME280_temperature;BME280_humidity;BME280_pressure;Samples;Min_cycle;Max_cycle;Signal;HPM_P1;HPM_P2
2021/12/27 00:00:20;;;;;;;31.65;14.82;;;5.60;99.90;;;;;;4993856;28;20022;-68
2021/12/27 00:02:49;;;;;;;36.17;13.85;;;5.70;99.90;;;;;;4993449;28;20034;-68
2021/12/27 00:05:15;;;;;;;32.95;14.23;;;5.70;99.90;;;;;;4993115;28;20022;-67
2021/12/27 00:07:43;;;;;;;32.28;13.90;;;5.60;99.90;;;;;;4992279;28;20378;-67
2021/12/27 00:10:10;;;;;;;32.45;13.82;;;5.60;99.90;;;;;;4993357;28;20030;-67
2021/12/27 00:12:36;;;;;;;41.78;14.80;;;5.60;99.90;;;;;;5014864;28;20037;-68
2021/12/27 00:15:03;;;;;;;35.03;13.90;;;5.70;99.90;;;;;;4997705;28;20022;-67
2021/12/27 00:17:28;;;;;;;34.53;14.30;;;5.70;99.90;;;;;;4995918;28;20022;-67
2021/12/27 00:19:56;;;;;;;35.95;14.25;;;5.70;99.90;;;;;;4997719;28;20562;-67
2021/12/27 00:22:22;;;;;;;34.90;14.07;;;5.70;99.90;;;;;;4997283;28;20088;-68
2021/12/27 00:24:48;;;;;;;34.17;13.65;;;5.60;99.90;;;;;;4997184;28;20029;-67
2021/12/27 00:27:17;;;;;;;33.00;13.50;;;5.60;99.90;;;;;;4996831;28;20072;-68
2021/12/27 00:29:44;;;;;;;36.58;14.15;;;5.60;99.90;;;;;;4995559;28;20030;-68
2021/12/27 00:32:11;;;;;;;35.40;13.82;;;5.70;99.90;;;;;;4997131;28;20034;-68
2021/12/27 00:34:37;;;;;;;28.52;12.43;;;5.70;99.90;;;;;;4996778;28;20029;-68
2021/12/27 00:37:07;;;;;;;32.35;12.98;;;5.70;99.90;;;;;;4996510;28;20032;-68
2021/12/27 00:39:33;;;;;;;33.60;14.13;;;5.70;99.90;;;;;;4996847;28;20053;-69
2021/12/27 00:42:00;;;;;;;31.40;12.85;;;5.70;99.90;;;;;;4997520;28;20026;-68
2021/12/27 00:44:26;;;;;;;37.50;13.10;;;5.70;99.90;;;;;;5003459;28;20029;-68
2021/12/27 00:46:52;;;;;;;35.20;13.73;;;5.70;99.90;;;;;;4997408;28;20034;-68
2021/12/27 00:49:18;;;;;;;35.28;13.15;;;5.70;99.90;;;;;;4996096;28;20052;-68
2021/12/27 00:51:43;;;;;;;33.58;13.50;;;5.70;99.90;;;;;;4996783;28;20038;-67
2021/12/27 00:54:09;;;;;;;31.10;13.65;;;5.70;99.90;;;;;;4996844;28;20045;-68
2021/12/27 00:56:34;;;;;;;37.83;14.20;;;5.70;99.90;;;;;;4997114;28;20055;-68
2021/12/27 00:59:00;;;;;;;33.83;13.93;;;5.70;99.90;;;;;;4995674;28;20045;-69
2021/12/27 01:01:26;;;;;;;37.47;14.00;;;5.70;99.90;;;;;;4996902;28;20030;-68
2021/12/27 01:03:52;;;;;;;40.63;13.75;;;5.70;99.90;;;;;;5014323;28;20490;-68
2021/12/27 01:06:17;;;;;;;38.03;14.05;;;5.70;99.90;;;;;;4996879;28;20030;-69
2021/12/27 01:08:43;;;;;;;39.35;14.10;;;5.70;99.90;;;;;;4995693;28;20026;-69
2021/12/27 01:11:26;;;;;;;36.65;13.88;;;5.60;99.90;;;;;;4996683;28;20037;-68
2021/12/27 01:14:09;;;;;;;43.97;13.85;;;5.70;99.90;;;;;;4996298;28;20030;-68
2021/12/27 01:16:35;;;;;;;;;;;5.60;99.90;;;;;;4997097;28;20072;-68
2021/12/27 01:19:01;;;;;;;38.58;14.35;;;5.60;99.90;;;;;;4995276;28;19999;-68
2021/12/27 01:21:30;;;;;;;38.78;14.25;;;5.60;99.90;;;;;;4996108;28;20076;-68
2021/12/27 01:23:56;;;;;;;41.08;14.68;;;5.60;99.90;;;;;;5012212;28;20029;-68
2021/12/27 01:26:22;;;;;;;43.67;14.65;;;5.70;99.90;;;;;;4995272;28;20184;-68
2021/12/27 01:28:48;;;;;;;41.35;15.10;;;5.60;99.90;;;;;;4994662;28;20053;-68
2021/12/27 01:31:14;;;;;;;39.47;14.80;;;5.70;99.90;;;;;;4994853;28;20042;-69
2021/12/27 01:33:40;;;;;;;48.15;15.05;;;5.60;99.90;;;;;;4996088;28;20030;-69
2021/12/27 01:36:07;;;;;;;42.88;14.77;;;5.70;99.90;;;;;;4995661;28;20538;-68
2021/12/27 01:38:37;;;;;;;44.88;14.27;;;5.70;99.90;;;;;;4995268;28;20066;-68
2021/12/27 01:41:04;;;;;;;40.95;14.48;;;5.70;99.90;;;;;;4995827;28;20076;-69
2021/12/27 01:43:32;;;;;;;49.40;15.25;;;5.70;99.90;;;;;;4993355;28;20029;-68
2021/12/27 01:45:59;;;;;;;41.20;14.63;;;5.70;99.90;;;;;;5001386;28;20026;-68
2021/12/27 01:48:30;;;;;;;40.97;14.52;;;5.70;99.90;;;;;;4995083;28;20156;-68
2021/12/27 01:50:56;;;;;;;39.38;15.05;;;5.70;99.90;;;;;;4995694;28;20022;-68
2021/12/27 01:53:26;;;;;;;38.72;14.02;;;5.70;99.90;;;;;;4996086;28;20433;-68
2021/12/27 01:55:53;;;;;;;43.35;13.75;;;5.80;99.90;;;;;;4994992;28;20100;-69
2021/12/27 01:58:21;;;;;;;38.10;13.70;;;5.80;99.90;;;;;;5012713;28;20141;-67
2021/12/27 02:00:53;;;;;;;42.70;14.27;;;5.80;99.90;;;;;;4995571;28;20026;-68
2021/12/27 02:03:22;;;;;;;38.65;14.13;;;5.80;99.90;;;;;;4996053;28;20582;-68
2021/12/27 02:05:48;;;;;;;39.05;13.88;;;5.80;99.90;;;;;;4994896;28;20053;-68
2021/12/27 02:08:14;;;;;;;36.90;13.57;;;5.80;99.90;;;;;;4994803;28;20413;-69
2021/12/27 02:10:40;;;;;;;37.25;13.48;;;5.80;99.90;;;;;;4995088;28;20410;-69
2021/12/27 02:13:06;;;;;;;39.45;13.52;;;5.90;99.90;;;;;;4994939;28;20033;-68
2021/12/27 02:15:32;;;;;;;36.92;13.48;;;5.90;99.90;;;;;;4994310;28;20113;-68
2021/12/27 02:17:58;;;;;;;33.97;12.70;;;5.90;99.90;;;;;;5012028;28;20105;-68
2021/12/27 02:20:28;;;;;;;33.75;13.23;;;5.90;99.90;;;;;;4995722;28;20025;-69
2021/12/27 02:23:00;;;;;;;31.88;12.93;;;5.90;99.90;;;;;;4995517;28;20026;-68
2021/12/27 02:25:27;;;;;;;37.47;13.13;;;5.90;99.90;;;;;;4995284;28;20228;-68
2021/12/27 02:27:53;;;;;;;33.45;12.65;;;5.90;99.90;;;;;;4993567;28;20022;-69
2021/12/27 02:30:21;;;;;;;30.58;13.18;;;6.00;99.90;;;;;;4997154;28;20405;-69
2021/12/27 02:32:53;;;;;;;36.35;13.27;;;6.00;99.90;;;;;;4995147;28;20053;-69
2021/12/27 02:35:26;;;;;;;39.85;13.35;;;6.00;99.90;;;;;;4994732;28;20030;-68
2021/12/27 02:37:52;;;;;;;33.85;12.00;;;6.00;99.90;;;;;;4994233;28;20034;-69
2021/12/27 02:40:23;;;;;;;29.60;11.98;;;6.00;99.90;;;;;;4994815;28;20393;-68
2021/12/27 02:42:58;;;;;;;35.30;13.02;;;6.10;99.90;;;;;;4993247;28;20026;-68
2021/12/27 02:45:25;;;;;;;31.10;12.63;;;6.00;99.90;;;;;;4995352;28;20048;-69
2021/12/27 02:47:52;;;;;;;33.75;11.93;;;6.00;99.90;;;;;;4993501;28;20026;-69
2021/12/27 02:50:18;;;;;;;30.95;13.15;;;6.00;99.90;;;;;;4995228;28;20486;-69
2021/12/27 02:52:43;;;;;;;40.08;13.70;;;6.10;99.90;;;;;;4994344;28;20049;-69
2021/12/27 02:55:12;;;;;;;38.53;14.07;;;6.10;99.90;;;;;;4994830;28;20053;-69
2021/12/27 02:57:39;;;;;;;37.85;13.10;;;6.10;99.90;;;;;;4993650;28;20033;-69
2021/12/27 03:00:11;;;;;;;38.13;13.95;;;6.10;99.90;;;;;;4982669;28;20064;-68
2021/12/27 03:02:37;;;;;;;39.10;13.02;;;6.10;99.90;;;;;;4994688;28;20065;-69
2021/12/27 03:05:03;;;;;;;41.83;14.25;;;6.10;99.90;;;;;;4994018;28;20748;-69
2021/12/27 03:07:29;;;;;;;35.20;12.65;;;6.10;99.90;;;;;;4994235;28;20063;-69
2021/12/27 03:09:58;;;;;;;36.65;13.02;;;6.10;99.90;;;;;;4994861;28;20053;-69
2021/12/27 03:12:23;;;;;;;36.47;12.88;;;6.10;99.90;;;;;;4994426;28;20034;-67
2021/12/27 03:14:49;;;;;;;32.67;12.77;;;6.10;99.90;;;;;;4994334;28;20117;-68
2021/12/27 03:17:15;;;;;;;35.33;13.20;;;6.10;99.90;;;;;;4992783;28;20080;-68
2021/12/27 03:19:40;;;;;;;34.65;13.80;;;6.10;99.90;;;;;;4994302;28;20032;-68
2021/12/27 03:22:06;;;;;;;39.13;13.27;;;6.10;99.90;;;;;;4994193;28;20034;-68
2021/12/27 03:24:31;;;;;;;35.90;12.93;;;6.10;99.90;;;;;;4993838;28;20049;-67
2021/12/27 03:26:57;;;;;;;34.13;12.82;;;6.10;99.90;;;;;;4994089;28;20033;-67
2021/12/27 03:29:23;;;;;;;34.15;12.68;;;6.10;99.90;;;;;;4993528;28;20026;-68
2021/12/27 03:31:50;;;;;;;34.80;13.10;;;6.10;99.90;;;;;;4992745;28;20087;-69
2021/12/27 03:34:15;;;;;;;31.27;12.95;;;6.10;99.90;;;;;;4985911;28;20061;-68
2021/12/27 03:36:42;;;;;;;37.83;13.80;;;6.10;99.90;;;;;;4987427;28;20049;-68
2021/12/27 03:39:10;;;;;;;35.00;12.70;;;6.10;99.90;;;;;;4992555;28;20033;-67
2021/12/27 03:41:36;;;;;;;37.00;12.85;;;6.10;99.90;;;;;;4993943;28;20026;-69
2021/12/27 03:44:03;;;;;;;37.60;14.07;;;6.10;99.90;;;;;;4993845;28;20030;-68
2021/12/27 03:46:29;;;;;;;33.30;12.98;;;6.10;99.90;;;;;;4993436;28;20041;-68
2021/12/27 03:48:55;;;;;;;31.65;12.77;;;6.10;99.90;;;;;;4992258;28;20029;-68
2021/12/27 03:51:21;;;;;;;33.75;12.50;;;6.10;99.90;;;;;;4994114;28;20033;-68
2021/12/27 03:53:47;;;;;;;35.92;13.18;;;6.00;99.90;;;;;;5011063;28;20029;-68
2021/12/27 03:56:12;;;;;;;36.60;12.80;;;6.10;99.90;;;;;;4993957;28;20022;-68
2021/12/27 03:58:49;;;;;;;32.38;12.23;;;6.10;99.90;;;;;;4992855;28;20022;-68
2021/12/27 04:01:17;;;;;;;34.13;12.38;;;6.10;99.90;;;;;;4993512;28;20505;-68
2021/12/27 04:03:49;;;;;;;32.28;12.45;;;6.10;99.90;;;;;;4982778;28;20113;-68
2021/12/27 04:06:16;;;;;;;;;;;6.10;99.90;;;;;;4994192;28;20033;-67
2021/12/27 04:08:42;;;;;;;31.23;11.43;;;6.10;99.90;;;;;;4992445;28;19909;-68
2021/12/27 04:11:09;;;;;;;37.47;12.75;;;6.10;99.90;;;;;;4993817;28;20466;-69
2021/12/27 04:13:35;;;;;;;38.60;13.02;;;6.10;99.90;;;;;;4993693;28;20033;-68
2021/12/27 04:16:01;;;;;;;41.50;12.95;;;6.10;99.90;;;;;;4993256;28;20041;-69
2021/12/27 04:18:27;;;;;;;34.25;12.75;;;6.10;99.90;;;;;;5010565;28;20022;-69
2021/12/27 04:20:53;;;;;;;33.95;11.98;;;6.10;99.90;;;;;;4993759;28;20028;-69
2021/12/27 04:23:18;;;;;;;36.42;13.10;;;6.10;99.90;;;;;;4992633;28;20121;-69
2021/12/27 04:25:45;;;;;;;37.83;12.25;;;6.10;99.90;;;;;;4993827;28;20088;-69
2021/12/27 04:28:11;;;;;;;36.15;12.77;;;6.10;99.90;;;;;;4992270;28;20030;-68
2021/12/27 04:30:37;;;;;;;33.45;12.88;;;6.10;99.90;;;;;;5003421;28;20703;-68
2021/12/27 04:33:03;;;;;;;34.95;12.77;;;6.00;99.90;;;;;;4990809;28;20030;-68
2021/12/27 04:35:29;;;;;;;43.17;13.23;;;6.00;99.90;;;;;;4991951;28;20084;-67
2021/12/27 04:37:55;;;;;;;40.40;13.52;;;6.00;99.90;;;;;;4992723;28;20026;-68
2021/12/27 04:40:22;;;;;;;36.17;13.23;;;6.00;99.90;;;;;;4993678;28;20034;-68
2021/12/27 04:42:55;;;;;;;38.53;12.20;;;6.00;99.90;;;;;;4993234;28;20046;-68
2021/12/27 04:45:21;;;;;;;34.08;11.90;;;6.10;99.90;;;;;;5011812;28;20057;-69
2021/12/27 04:47:46;;;;;;;36.95;12.90;;;6.10;99.90;;;;;;4991864;28;20037;-68
2021/12/27 04:50:13;;;;;;;31.85;11.90;;;6.10;99.90;;;;;;4993551;28;20121;-68
2021/12/27 04:52:39;;;;;;;32.78;11.02;;;6.10;99.90;;;;;;4992623;28;20126;-68
2021/12/27 04:55:05;;;;;;;39.20;13.00;;;6.10;99.90;;;;;;4993634;28;20057;-69
2021/12/27 04:57:31;;;;;;;32.88;12.18;;;6.10;99.90;;;;;;4993593;28;20406;-69
2021/12/27 04:59:56;;;;;;;34.63;12.57;;;6.10;99.90;;;;;;4997255;28;20045;-68
2021/12/27 05:02:22;;;;;;;44.45;13.85;;;6.00;99.90;;;;;;4995038;28;20518;-68
2021/12/27 05:04:48;;;;;;;47.95;13.85;;;6.00;99.90;;;;;;4990027;28;20061;-69
2021/12/27 05:07:13;;;;;;;40.42;13.00;;;6.00;99.90;;;;;;4995555;28;20030;-68
2021/12/27 05:09:39;;;;;;;46.95;14.15;;;5.90;99.90;;;;;;4996148;28;20072;-67
2021/12/27 05:12:06;;;;;;;43.05;13.90;;;5.90;99.90;;;;;;4996074;28;20096;-69
2021/12/27 05:14:31;;;;;;;40.97;13.30;;;5.90;99.90;;;;;;4996841;28;20022;-69
2021/12/27 05:16:58;;;;;;;38.58;13.15;;;5.90;99.90;;;;;;4992805;28;20041;-67
2021/12/27 05:19:23;;;;;;;50.10;13.70;;;5.90;99.90;;;;;;5008381;28;20033;-69
2021/12/27 05:21:49;;;;;;;38.85;13.35;;;5.90;99.90;;;;;;4996401;28;20112;-69
2021/12/27 05:24:15;;;;;;;43.65;13.38;;;5.90;99.90;;;;;;4996108;28;20439;-67
2021/12/27 05:26:40;;;;;;;35.38;12.55;;;5.90;99.90;;;;;;4996259;28;20033;-68
2021/12/27 05:29:07;;;;;;;36.75;12.48;;;5.90;99.90;;;;;;4995795;28;20037;-68
2021/12/27 05:31:32;;;;;;;35.25;11.50;;;5.90;99.90;;;;;;4996086;28;20084;-69
2021/12/27 05:33:58;;;;;;;34.42;11.63;;;5.90;99.90;;;;;;4996326;28;20026;-68
2021/12/27 05:36:24;;;;;;;31.95;11.77;;;5.90;99.90;;;;;;4996231;28;20398;-69
2021/12/27 05:38:49;;;;;;;32.42;11.05;;;5.90;99.90;;;;;;4995146;28;20446;-68
2021/12/27 05:41:15;;;;;;;37.88;11.57;;;5.90;99.90;;;;;;5013855;28;20052;-67
2021/12/27 05:43:41;;;;;;;31.33;10.68;;;5.90;99.90;;;;;;4995998;28;20105;-69
2021/12/27 05:46:07;;;;;;;33.28;12.15;;;6.00;99.90;;;;;;4996272;28;20581;-68
2021/12/27 05:48:33;;;;;;;31.02;11.23;;;5.90;99.90;;;;;;4994747;28;20105;-69
2021/12/27 05:50:58;;;;;;;33.00;11.05;;;5.90;99.90;;;;;;4995915;28;20446;-69
2021/12/27 05:53:24;;;;;;;34.42;11.05;;;6.00;99.90;;;;;;4995164;28;20034;-68
2021/12/27 05:55:51;;;;;;;33.35;10.90;;;5.90;99.90;;;;;;4996181;28;20401;-69
2021/12/27 05:58:17;;;;;;;28.15;10.27;;;6.00;99.90;;;;;;4994794;28;20045;-69
2021/12/27 06:00:43;;;;;;;30.40;10.40;;;5.90;99.90;;;;;;4996243;28;20033;-69
2021/12/27 06:03:09;;;;;;;27.45;10.35;;;5.90;99.90;;;;;;4994917;28;20033;-68
2021/12/27 06:05:35;;;;;;;35.10;10.88;;;5.90;99.90;;;;;;4995155;28;20075;-68
2021/12/27 06:08:01;;;;;;;29.10;9.95;;;5.90;99.90;;;;;;4993472;28;20113;-68
2021/12/27 06:10:27;;;;;;;27.25;9.98;;;5.80;99.90;;;;;;4993641;28;20029;-69
2021/12/27 06:12:53;;;;;;;28.17;9.95;;;5.80;99.90;;;;;;4995770;28;20058;-68
2021/12/27 06:15:19;;;;;;;31.20;10.57;;;5.80;99.90;;;;;;4995637;28;20068;-68
2021/12/27 06:17:46;;;;;;;30.52;10.27;;;5.70;99.90;;;;;;5007555;28;20176;-69
2021/12/27 06:20:15;;;;;;;37.70;11.68;;;5.70;99.90;;;;;;4987087;28;20026;-69
2021/12/27 06:22:45;;;;;;;36.22;11.57;;;5.70;99.90;;;;;;4984558;28;20481;-68
2021/12/27 06:25:10;;;;;;;36.13;10.85;;;5.70;99.90;;;;;;4994437;28;20025;-67
2021/12/27 06:27:37;;;;;;;33.10;10.98;;;5.80;99.90;;;;;;4993171;28;20041;-68
2021/12/27 06:30:07;;;;;;;31.73;10.75;;;5.80;99.90;;;;;;4994952;28;20131;-67
2021/12/27 06:32:33;;;;;;;33.67;11.38;;;5.80;99.90;;;;;;4986533;28;20030;-68
2021/12/27 06:34:59;;;;;;;30.33;10.52;;;5.80;99.90;;;;;;4995690;28;20719;-67
2021/12/27 06:37:25;;;;;;;27.90;10.80;;;5.90;99.90;;;;;;4991821;28;20084;-67
2021/12/27 06:39:50;;;;;;;32.45;10.60;;;5.90;99.90;;;;;;4992591;28;20075;-68
2021/12/27 06:42:16;;;;;;;31.40;11.13;;;5.80;99.90;;;;;;4993473;28;20072;-68
2021/12/27 06:44:42;;;;;;;37.05;11.55;;;5.80;99.90;;;;;;4995222;28;20025;-68
2021/12/27 06:47:08;;;;;;;41.30;12.50;;;5.80;99.90;;;;;;4991858;28;20347;-68
2021/12/27 06:49:33;;;;;;;50.15;13.50;;;5.80;99.90;;;;;;5007127;28;20080;-68
2021/12/27 06:51:59;;;;;;;42.08;13.85;;;5.70;99.90;;;;;;4993848;28;20084;-67
2021/12/27 06:54:25;;;;;;;52.20;15.05;;;5.60;99.90;;;;;;5011904;23;20068;-72
2021/12/27 06:56:51;;;;;;;47.25;14.60;;;5.60;99.90;;;;;;5011801;28;20037;-71
2021/12/27 06:59:17;;;;;;;52.03;14.80;;;5.50;99.90;;;;;;5019074;28;20571;-71
2021/12/27 07:01:43;;;;;;;48.58;13.48;;;5.50;99.90;;;;;;5020999;28;20022;-71
2021/12/27 07:04:09;;;;;;;44.75;13.55;;;5.40;99.90;;;;;;4996313;28;20096;-71
2021/12/27 07:06:34;;;;;;;43.50;13.93;;;5.40;99.90;;;;;;5001163;28;20062;-71
2021/12/27 07:09:00;;;;;;;41.28;13.40;;;5.40;99.90;;;;;;4994225;28;20478;-71
2021/12/27 07:11:25;;;;;;;53.22;14.25;;;5.40;99.90;;;;;;4995440;28;20029;-72
2021/12/27 07:13:51;;;;;;;49.13;14.02;;;5.30;99.90;;;;;;4995422;28;20117;-72
2021/12/27 07:16:17;;;;;;;39.53;13.75;;;5.30;99.90;;;;;;4998964;28;20080;-71
2021/12/27 07:18:42;;;;;;;44.20;13.55;;;5.20;99.90;;;;;;4998469;28;20050;-70
2021/12/27 07:21:08;;;;;;;46.30;14.45;;;5.10;99.90;;;;;;4986422;28;20139;-72
2021/12/27 07:23:34;;;;;;;44.60;13.57;;;5.10;99.90;;;;;;5000746;28;20036;-71
2021/12/27 07:25:59;;;;;;;45.03;13.23;;;5.00;99.90;;;;;;5001778;28;20021;-72
2021/12/27 07:28:25;;;;;;;42.03;13.02;;;5.00;99.90;;;;;;4993469;28;20033;-72
2021/12/27 07:30:51;;;;;;;41.83;11.90;;;4.90;99.90;;;;;;4992843;28;20034;-71
2021/12/27 07:33:17;;;;;;;43.45;12.43;;;4.80;99.90;;;;;;4994183;28;20478;-71
2021/12/27 07:35:42;;;;;;;38.03;12.60;;;4.80;99.90;;;;;;4993875;28;20049;-71
2021/12/27 07:38:09;;;;;;;39.70;12.65;;;4.80;99.90;;;;;;4992880;28;20486;-71
2021/12/27 07:40:34;;;;;;;44.47;13.23;;;4.80;99.90;;;;;;4994419;28;20030;-71
2021/12/27 07:43:00;;;;;;;44.08;12.65;;;4.80;99.90;;;;;;4993836;28;20041;-71
2021/12/27 07:45:26;;;;;;;47.88;14.40;;;4.70;99.90;;;;;;4994072;28;20022;-72
2021/12/27 07:47:52;;;;;;;52.72;15.65;;;4.80;99.90;;;;;;5001280;28;20033;-73
2021/12/27 07:50:19;;;;;;;50.92;15.32;;;4.80;99.90;;;;;;4995994;28;20030;-72
2021/12/27 07:52:45;;;;;;;50.65;13.85;;;4.80;99.90;;;;;;5001263;28;20045;-72
2021/12/27 07:55:11;;;;;;;46.70;14.20;;;4.90;99.90;;;;;;4993892;28;20109;-73
2021/12/27 07:57:37;;;;;;;43.65;13.52;;;5.00;99.90;;;;;;4991428;28;20553;-72
2021/12/27 08:00:05;;;;;;;43.03;13.70;;;5.00;99.90;;;;;;4989796;28;20030;-71
2021/12/27 08:02:31;;;;;;;42.10;13.77;;;5.00;99.90;;;;;;4993698;28;20026;-71
2021/12/27 08:04:56;;;;;;;46.60;14.35;;;5.00;99.90;;;;;;4997342;28;20061;-72
2021/12/27 08:07:22;;;;;;;44.35;13.82;;;5.10;99.90;;;;;;4992471;28;20034;-72
2021/12/27 08:09:48;;;;;;;47.53;15.07;;;5.00;99.90;;;;;;4993643;28;20061;-72
2021/12/27 08:12:14;;;;;;;39.33;14.10;;;5.10;99.90;;;;;;4993679;28;20037;-72
2021/12/27 08:14:40;;;;;;;49.25;15.18;;;5.10;99.90;;;;;;4993831;28;20482;-72
2021/12/27 08:17:06;;;;;;;43.22;13.85;;;5.10;99.90;;;;;;4993307;28;20049;-72
2021/12/27 08:19:33;;;;;;;38.17;13.23;;;5.10;99.90;;;;;;4995992;28;20114;-72
2021/12/27 08:21:59;;;;;;;38.53;13.70;;;5.10;99.90;;;;;;4999609;28;20029;-72
2021/12/27 08:24:24;;;;;;;38.67;12.80;;;5.10;99.90;;;;;;4991426;28;20083;-72
2021/12/27 08:26:50;;;;;;;43.63;13.27;;;5.10;99.90;;;;;;4989103;28;20402;-71
2021/12/27 08:29:16;;;;;;;41.47;13.25;;;5.10;99.90;;;;;;4986566;28;20136;-71
2021/12/27 08:31:42;;;;;;;42.45;13.45;;;5.10;99.90;;;;;;4993089;28;20038;-72
2021/12/27 08:34:08;;;;;;;43.40;14.02;;;5.20;99.90;;;;;;4997099;28;20033;-72
2021/12/27 08:36:33;;;;;;;46.15;14.10;;;5.20;99.90;;;;;;4997452;28;20549;-71
2021/12/27 08:38:59;;;;;;;36.03;13.80;;;5.30;99.90;;;;;;4994110;28;20032;-71
2021/12/27 08:41:27;;;;;;;45.38;13.90;;;5.30;99.90;;;;;;4997283;28;20510;-71
2021/12/27 08:43:58;;;;;;;44.75;14.90;;;5.30;99.90;;;;;;4997190;28;20120;-72
2021/12/27 08:46:24;;;;;;;43.88;14.50;;;5.40;99.90;;;;;;4998934;28;20033;-72
2021/12/27 08:48:50;;;;;;;45.55;14.30;;;5.50;99.90;;;;;;4997561;28;20026;-72
2021/12/27 08:51:16;;;;;;;44.13;14.85;;;5.50;99.90;;;;;;5006379;28;20493;-72
2021/12/27 08:53:42;;;;;;;41.92;14.30;;;5.60;99.90;;;;;;4996121;28;20088;-71
2021/12/27 08:56:08;;;;;;;43.55;14.35;;;5.80;99.90;;;;;;4996778;28;20031;-72
2021/12/27 08:58:33;;;;;;;44.97;14.25;;;5.90;99.90;;;;;;5011823;28;20022;-72
2021/12/27 09:00:59;;;;;;;41.33;13.63;;;5.90;99.90;;;;;;4996336;28;20026;-71
2021/12/27 09:03:25;;;;;;;44.55;13.55;;;6.00;99.90;;;;;;5001387;28;20041;-71
2021/12/27 09:05:51;;;;;;;43.25;14.02;;;6.10;99.90;;;;;;4994271;28;20383;-72
2021/12/27 09:08:16;;;;;;;42.58;13.45;;;6.20;99.90;;;;;;4997386;28;20092;-72
2021/12/27 09:10:42;;;;;;;41.17;13.75;;;6.20;99.90;;;;;;5002370;28;20434;-72
2021/12/27 09:13:08;;;;;;;40.53;13.57;;;6.30;99.90;;;;;;5001691;28;20499;-72
2021/12/27 09:15:33;;;;;;;34.40;13.13;;;6.30;99.90;;;;;;4996736;28;20044;-71
2021/12/27 09:17:59;;;;;;;41.97;12.77;;;6.30;99.90;;;;;;4997457;28;20021;-72
2021/12/27 09:20:26;;;;;;;36.63;12.80;;;6.30;99.90;;;;;;5000556;28;20018;-71
2021/12/27 09:22:52;;;;;;;38.75;12.20;;;6.30;99.90;;;;;;4994075;28;20049;-72
2021/12/27 09:25:18;;;;;;;34.05;12.05;;;6.30;99.90;;;;;;4996913;28;20030;-72
2021/12/27 09:27:44;;;;;;;28.25;11.20;;;6.30;99.90;;;;;;5012025;28;20052;-72
2021/12/27 09:30:10;;;;;;;33.15;11.93;;;6.40;99.90;;;;;;4992736;28;20026;-72
2021/12/27 09:32:36;;;;;;;35.33;12.55;;;6.40;99.90;;;;;;4992576;28;20052;-71
2021/12/27 09:35:03;;;;;;;36.97;15.13;;;6.40;99.90;;;;;;4996767;28;20022;-72
2021/12/27 09:37:29;;;;;;;28.80;12.00;;;6.50;99.90;;;;;;4995614;28;20490;-72
2021/12/27 09:39:54;;;;;;;31.48;13.68;;;6.50;99.90;;;;;;4996846;28;20034;-72
2021/12/27 09:42:22;;;;;;;40.25;14.98;;;6.50;99.90;;;;;;4996217;28;20116;-72
2021/12/27 09:44:49;;;;;;;41.75;15.18;;;6.50;99.90;;;;;;4995383;28;20034;-71
2021/12/27 09:47:15;;;;;;;30.52;12.93;;;6.60;99.90;;;;;;4993344;28;20157;-72
2021/12/27 09:49:41;;;;;;;26.13;11.50;;;6.60;99.90;;;;;;4987646;28;20022;-72
2021/12/27 09:52:07;;;;;;;30.88;11.32;;;6.60;99.90;;;;;;4996781;28;20449;-72
2021/12/27 09:54:32;;;;;;;27.45;11.32;;;6.60;99.90;;;;;;4983753;28;20069;-72
2021/12/27 09:56:58;;;;;;;29.25;11.35;;;6.60;99.90;;;;;;4992130;28;20025;-71
2021/12/27 09:59:25;;;;;;;29.70;11.90;;;6.60;99.90;;;;;;4995201;28;20046;-72
2021/12/27 10:01:52;;;;;;;24.58;11.77;;;6.60;99.90;;;;;;4996109;28;20050;-72
2021/12/27 10:04:19;;;;;;;25.23;11.35;;;6.70;99.90;;;;;;4998780;28;20096;-71
2021/12/27 10:06:45;;;;;;;24.48;11.52;;;6.70;99.90;;;;;;4995692;28;20507;-71
2021/12/27 10:09:10;;;;;;;28.38;12.02;;;6.70;99.90;;;;;;4995848;28;20049;-72
2021/12/27 10:11:39;;;;;;;23.85;12.02;;;6.80;99.90;;;;;;4997438;28;20126;-71
2021/12/27 10:14:10;;;;;;;26.08;11.45;;;6.80;99.90;;;;;;4992577;28;20031;-72
2021/12/27 10:16:38;;;;;;;21.13;9.75;;;6.90;99.90;;;;;;4987660;28;20446;-71
2021/12/27 10:19:07;;;;;;;25.45;13.02;;;6.90;99.90;;;;;;5013205;28;20026;-72
2021/12/27 10:21:34;;;;;;;26.88;13.15;;;7.00;99.90;;;;;;5000554;28;20022;-72
2021/12/27 10:24:04;;;;;;;22.63;11.52;;;7.00;99.90;;;;;;4996804;28;20033;-71
2021/12/27 10:26:32;;;;;;;24.52;11.43;;;7.00;99.90;;;;;;5012922;28;20026;-71
2021/12/27 10:29:13;;;;;;;22.30;11.80;;;7.10;99.90;;;;;;4999557;28;20092;-72
2021/12/27 10:31:59;;;;;;;21.08;10.93;;;7.10;99.90;;;;;;5000630;28;20109;-73
2021/12/27 10:34:29;;;;;;;20.23;10.48;;;7.10;99.90;;;;;;4990844;28;20037;-71
2021/12/27 10:37:03;;;;;;;17.10;9.50;;;7.20;99.90;;;;;;4986468;28;20713;-71
2021/12/27 10:40:02;;;;;;;18.55;10.23;;;7.20;99.90;;;;;;5017765;28;20033;-71
2021/12/27 10:42:40;;;;;;;16.45;9.43;;;7.20;99.90;;;;;;4987255;28;20095;-71
2021/12/27 10:45:11;;;;;;;15.93;9.88;;;7.20;99.90;;;;;;5004740;28;20029;-70
2021/12/27 10:47:44;;;;;;;18.17;9.48;;;7.20;99.90;;;;;;4994188;28;20119;-71
2021/12/27 10:50:23;;;;;;;17.02;9.57;;;7.20;99.90;;;;;;5009115;28;20035;-71
2021/12/27 10:52:53;;;;;;;16.75;9.95;;;7.30;99.90;;;;;;4993608;28;20030;-72
2021/12/27 10:55:25;;;;;;;15.90;9.13;;;7.30;99.90;;;;;;4993748;28;20026;-71
2021/12/27 10:57:51;;;;;;;15.55;9.45;;;7.30;99.90;;;;;;5006934;28;20167;-71
2021/12/27 11:00:22;;;;;;;16.10;9.43;;;7.30;99.90;;;;;;4988025;28;20029;-71
2021/12/27 11:02:48;;;;;;;14.48;9.10;;;7.40;99.90;;;;;;4996430;28;20029;-71
2021/12/27 11:05:16;;;;;;;17.42;9.52;;;7.40;99.90;;;;;;5009602;28;20398;-71
2021/12/27 11:07:43;;;;;;;15.70;9.05;;;7.40;99.90;;;;;;4990713;28;20052;-71
2021/12/27 11:10:09;;;;;;;17.58;8.82;;;7.50;99.90;;;;;;4994879;28;20561;-70
2021/12/27 11:12:35;;;;;;;14.63;8.57;;;7.50;99.90;;;;;;4994598;28;20057;-71
2021/12/27 11:15:00;;;;;;;14.85;9.02;;;7.60;99.90;;;;;;4994549;28;20050;-71
2021/12/27 11:17:28;;;;;;;17.20;9.05;;;7.60;99.90;;;;;;4994757;28;20022;-71
2021/12/27 11:19:53;;;;;;;15.95;8.88;;;7.60;99.90;;;;;;4994486;28;20042;-71
2021/12/27 11:22:19;;;;;;;14.55;9.00;;;7.70;99.90;;;;;;4990160;28;20038;-71
2021/12/27 11:24:45;;;;;;;15.43;9.10;;;7.70;99.90;;;;;;5003677;28;20022;-71
2021/12/27 11:27:12;;;;;;;13.77;8.38;;;7.70;99.90;;;;;;4999681;28;20026;-71
2021/12/27 11:29:38;;;;;;;16.52;8.15;;;7.80;99.90;;;;;;4994735;28;20022;-71
2021/12/27 11:32:15;;;;;;;14.68;8.77;;;7.80;99.90;;;;;;4977648;28;20475;-71
2021/12/27 11:34:57;;;;;;;11.77;7.93;;;7.90;99.90;;;;;;4994738;28;20030;-71
2021/12/27 11:37:41;;;;;;;16.42;9.05;;;7.90;99.90;;;;;;4993356;28;20025;-71
2021/12/27 11:40:10;;;;;;;12.20;7.57;;;7.90;99.90;;;;;;4975205;28;20041;-71
2021/12/27 11:43:00;;;;;;;13.13;8.20;;;7.90;99.90;;;;;;4994519;28;20037;-72
2021/12/27 11:45:45;;;;;;;15.15;8.05;;;8.00;99.90;;;;;;5011182;28;20038;-72
2021/12/27 11:48:15;;;;;;;12.57;7.75;;;8.00;99.90;;;;;;4993228;28;20030;-71
2021/12/27 11:50:56;;;;;;;12.63;7.68;;;8.00;99.90;;;;;;4994048;28;20547;-71
2021/12/27 11:53:37;;;;;;;14.35;8.52;;;8.00;99.90;;;;;;4998482;28;20026;-72
2021/12/27 11:56:08;;;;;;;12.45;7.40;;;8.10;99.90;;;;;;4994008;28;20029;-72
2021/12/27 11:58:37;;;;;;;14.18;8.45;;;8.20;99.90;;;;;;4993824;28;20394;-71
2021/12/27 12:01:36;;;;;;;12.35;8.23;;;8.20;99.90;;;;;;4994045;28;20026;-72
2021/12/27 12:04:02;;;;;;;13.18;8.57;;;8.20;99.90;;;;;;4994351;28;20474;-72
2021/12/27 12:06:44;;;;;;;16.52;9.20;;;8.20;99.90;;;;;;4992969;28;20036;-72
2021/12/27 12:09:11;;;;;;;;;;;8.20;99.90;;;;;;4994194;28;20109;-72
2021/12/27 12:11:37;;;;;;;16.30;10.02;;;8.30;99.90;;;;;;4994011;28;19910;-72
2021/12/27 12:14:27;;;;;;;18.67;10.15;;;8.30;99.90;;;;;;4990770;28;20077;-72
2021/12/27 12:16:54;;;;;;;18.30;10.02;;;8.40;99.90;;;;;;4990348;28;20026;-72
2021/12/27 12:19:37;;;;;;;17.00;9.70;;;8.50;99.90;;;;;;5006303;28;20451;-72
2021/12/27 12:22:04;;;;;;;15.77;8.88;;;8.60;99.90;;;;;;5005232;28;20049;-72
2021/12/27 12:24:29;;;;;;;17.77;9.40;;;8.70;99.90;;;;;;4995241;28;20038;-72
2021/12/27 12:26:58;;;;;;;18.27;9.23;;;8.70;99.90;;;;;;4994230;28;20536;-72
2021/12/27 12:29:46;;;;;;;12.98;8.60;;;8.70;99.90;;;;;;4994253;28;20084;-72
2021/12/27 12:32:15;;;;;;;14.98;9.52;;;8.80;99.90;;;;;;4993621;28;20125;-72
2021/12/27 12:34:42;;;;;;;14.55;8.00;;;8.80;99.90;;;;;;4993414;28;20018;-72
2021/12/27 12:37:11;;;;;;;13.68;8.45;;;8.90;99.90;;;;;;4993187;28;20033;-69
2021/12/27 12:39:43;;;;;;;13.65;8.65;;;9.00;99.90;;;;;;4993831;28;20018;-72